createdAt,value
2019-01-28T00:05:21.603Z,30.23
2019-01-28T00:07:49.575Z,28.37
2019-01-28T00:10:17.505Z,28.00
2019-01-28T00:12:45.604Z,27.67
2019-01-28T00:15:13.574Z,26.53
2019-01-28T00:17:41.606Z,28.30
2019-01-28T00:20:09.584Z,25.73
2019-01-28T00:22:37.556Z,28.10
2019-01-28T00:25:05.553Z,28.90
2019-01-28T00:27:33.474Z,26.53
2019-01-28T00:30:01.488Z,25.17
2019-01-28T00:32:29.518Z,25.27
2019-01-28T00:34:57.475Z,24.17
2019-01-28T00:37:25.469Z,24.90
2019-01-28T00:39:53.419Z,26.07
2019-01-28T00:42:21.507Z,24.47
2019-01-28T00:44:49.485Z,25.80
2019-01-28T00:47:17.432Z,26.00
2019-01-28T00:49:45.452Z,26.97
2019-01-28T00:52:13.370Z,26.00
2019-01-28T00:54:41.351Z,26.97
2019-01-28T00:57:09.307Z,26.80
2019-01-28T00:59:37.291Z,27.10
2019-01-28T01:02:05.243Z,24.97
2019-01-28T01:04:33.229Z,24.17
2019-01-28T01:07:01.244Z,27.70
2019-01-28T01:09:29.167Z,26.27
2019-01-28T01:11:57.188Z,27.97
2019-01-28T01:14:25.124Z,26.20
2019-01-28T01:16:53.124Z,26.63
2019-01-28T01:19:21.136Z,24.30
2019-01-28T01:21:49.117Z,25.23
2019-01-28T01:24:17.095Z,25.17
2019-01-28T01:26:45.036Z,26.60
2019-01-28T01:29:13.103Z,26.37
2019-01-28T01:32:00.116Z,24.50
2019-01-28T01:34:28.073Z,24.40
2019-01-28T01:36:56.084Z,26.33
2019-01-28T01:39:24.060Z,25.37
2019-01-28T01:41:52.021Z,26.10
2019-01-28T01:44:19.967Z,25.90
2019-01-28T01:46:47.965Z,26.37
2019-01-28T01:49:15.937Z,29.80
2019-01-28T01:51:43.888Z,30.20
2019-01-28T01:54:11.958Z,26.83
2019-01-28T01:56:39.948Z,28.73
2019-01-28T01:59:07.904Z,28.33
2019-01-28T02:01:35.867Z,26.30
2019-01-28T02:04:03.947Z,25.10
2019-01-28T02:06:31.912Z,27.13
2019-01-28T02:08:59.872Z,27.10
2019-01-28T02:11:27.854Z,26.60
2019-01-28T02:13:55.818Z,25.17
2019-01-28T02:16:23.772Z,25.90
2019-01-28T02:18:51.708Z,28.00
2019-01-28T02:21:19.710Z,27.07
2019-01-28T02:23:47.675Z,24.70
2019-01-28T02:26:15.677Z,26.30
2019-01-28T02:28:43.772Z,26.07
2019-01-28T02:31:30.715Z,26.27
2019-01-28T02:36:49.578Z,27.50
2019-01-28T02:39:17.623Z,24.93
2019-01-28T02:41:45.682Z,25.87
2019-01-28T02:44:13.627Z,25.97
2019-01-28T02:46:41.611Z,26.70
2019-01-28T02:49:09.570Z,24.07
2019-01-28T02:51:37.522Z,24.20
2019-01-28T02:54:05.512Z,23.40
2019-01-28T02:56:33.460Z,25.27
2019-01-28T02:59:01.442Z,22.30
2019-01-28T03:01:29.433Z,22.30
2019-01-28T03:03:57.500Z,22.97
2019-01-28T03:06:25.562Z,23.30
2019-01-28T03:09:12.571Z,22.90
2019-01-28T03:11:40.576Z,22.17
2019-01-28T03:14:08.613Z,24.17
2019-01-28T03:16:36.593Z,23.93
2019-01-28T03:19:04.597Z,25.40
2019-01-28T03:21:32.524Z,24.83
2019-01-28T03:24:19.579Z,23.70
2019-01-28T03:29:34.804Z,25.50
2019-01-28T03:32:02.696Z,25.13
2019-01-28T03:34:30.693Z,25.70
2019-01-28T03:36:58.762Z,26.90
2019-01-28T03:39:26.695Z,25.27
2019-01-28T03:42:13.668Z,26.00
2019-01-28T03:44:41.610Z,24.90
2019-01-28T03:47:09.543Z,26.17
2019-01-28T03:49:37.525Z,25.73
2019-01-28T03:52:05.583Z,24.30
2019-01-28T03:54:33.583Z,25.20
2019-01-28T03:57:01.528Z,25.47
2019-01-28T03:59:29.520Z,25.00
2019-01-28T04:01:57.471Z,24.20
2019-01-28T04:04:25.468Z,23.40
2019-01-28T04:06:53.404Z,24.43
2019-01-28T04:09:21.392Z,23.93
2019-01-28T04:11:49.372Z,22.87
2019-01-28T04:14:17.396Z,23.67
2019-01-28T04:16:45.372Z,24.00
2019-01-28T04:19:13.290Z,24.20
2019-01-28T04:21:41.205Z,23.40
2019-01-28T04:24:09.203Z,23.57
2019-01-28T04:26:37.148Z,23.90
2019-01-28T04:29:05.133Z,24.60
2019-01-28T04:31:33.095Z,25.00
2019-01-28T04:34:01.045Z,25.50
2019-01-28T04:36:29.042Z,24.43
2019-01-28T04:38:57.084Z,25.43
2019-01-28T04:41:25.079Z,25.60
2019-01-28T04:43:53.029Z,25.10
2019-01-28T04:46:21.320Z,25.23
2019-01-28T04:48:49.277Z,24.60
2019-01-28T04:51:17.255Z,23.27
2019-01-28T04:53:45.215Z,24.03
2019-01-28T04:56:13.176Z,23.10
2019-01-28T04:58:41.188Z,23.67
2019-01-28T05:01:09.136Z,23.53
2019-01-28T05:03:37.079Z,22.90
2019-01-28T05:06:05.078Z,23.63
2019-01-28T05:08:33.028Z,23.50
2019-01-28T05:11:01.021Z,24.10
2019-01-28T05:13:29.109Z,22.67
2019-01-28T05:15:57.139Z,22.97
2019-01-28T05:18:25.160Z,23.73
2019-01-28T05:20:53.087Z,25.40
2019-01-28T05:23:21.042Z,25.20
2019-01-28T05:25:49.033Z,26.00
2019-01-28T05:28:16.984Z,25.20
2019-01-28T05:30:45.035Z,27.80
2019-01-28T05:33:12.976Z,41.90
2019-01-28T05:35:40.998Z,65.13
2019-01-28T05:38:08.986Z,32.47
2019-01-28T05:40:36.928Z,52.40
2019-01-28T05:43:04.815Z,39.27
2019-01-28T05:45:32.788Z,31.43
2019-01-28T05:48:00.749Z,26.63
2019-01-28T05:50:29.362Z,25.37
2019-01-28T05:52:58.486Z,25.30
2019-01-28T05:55:26.374Z,24.53
2019-01-28T05:57:54.385Z,24.77
2019-01-28T06:03:13.298Z,25.43
2019-01-28T06:05:41.304Z,25.87
2019-01-28T06:08:09.268Z,25.13
2019-01-28T06:10:37.241Z,23.50
2019-01-28T06:13:05.318Z,22.37
2019-01-28T06:15:33.290Z,22.13
2019-01-28T06:18:01.246Z,22.60
2019-01-28T06:20:29.158Z,23.10
2019-01-28T06:22:57.111Z,21.87
2019-01-28T06:28:07.171Z,22.93
2019-01-28T06:30:35.132Z,21.43
2019-01-28T06:33:03.120Z,22.33
2019-01-28T06:35:31.040Z,20.80
2019-01-28T06:37:58.940Z,18.10
2019-01-28T06:40:30.989Z,15.70
2019-01-28T06:42:58.950Z,14.40
2019-01-28T06:45:26.978Z,18.33
2019-01-28T06:47:54.890Z,21.20
2019-01-28T06:53:25.376Z,24.20
2019-01-28T06:55:53.302Z,24.37
2019-01-28T06:58:21.304Z,25.83
2019-01-28T07:00:49.169Z,26.53
2019-01-28T07:03:36.038Z,26.90
2019-01-28T07:06:03.991Z,29.33
2019-01-28T07:08:31.900Z,23.13
2019-01-28T07:10:59.762Z,24.07
2019-01-28T07:13:27.754Z,25.20
2019-01-28T07:15:55.719Z,25.60
2019-01-28T07:18:23.588Z,25.97
2019-01-28T07:20:51.599Z,24.90
2019-01-28T07:23:19.506Z,27.33
2019-01-28T07:25:47.386Z,25.40
2019-01-28T07:28:15.411Z,27.30
2019-01-28T07:30:43.324Z,27.77
2019-01-28T07:33:11.310Z,25.40
2019-01-28T07:35:39.273Z,25.97
2019-01-28T07:38:07.248Z,27.07
2019-01-28T07:40:35.289Z,26.20
2019-01-28T07:43:03.268Z,27.67
2019-01-28T07:45:32.422Z,27.43
2019-01-28T07:48:03.003Z,28.30
2019-01-28T07:50:30.078Z,26.53
2019-01-28T07:52:58.161Z,25.50
2019-01-28T07:55:26.192Z,28.23
2019-01-28T07:57:54.245Z,27.43
2019-01-28T08:03:25.396Z,26.40
2019-01-28T08:05:53.355Z,29.20
2019-01-28T08:08:21.239Z,29.50
2019-01-28T08:10:49.240Z,32.67
2019-01-28T08:13:17.111Z,26.60
2019-01-28T08:15:45.060Z,27.50
2019-01-28T08:18:12.997Z,29.67
2019-01-28T08:20:40.988Z,28.00
2019-01-28T08:23:09.044Z,20.77
2019-01-28T08:25:36.936Z,27.00
2019-01-28T08:28:05.161Z,20.57
2019-01-28T08:30:34.235Z,16.67
2019-01-28T08:33:03.045Z,17.17
2019-01-28T08:38:13.257Z,17.60
2019-01-28T08:40:41.147Z,14.80
2019-01-28T08:43:09.139Z,10.87
2019-01-28T08:45:37.025Z,10.40
2019-01-28T08:48:04.902Z,9.87
2019-01-28T08:50:32.872Z,9.47
2019-01-28T08:53:00.865Z,10.00
2019-01-28T08:55:28.900Z,9.90
2019-01-28T08:57:56.845Z,10.37
2019-01-28T09:00:43.787Z,10.87
2019-01-28T09:05:51.999Z,11.10
2019-01-28T09:08:19.975Z,11.50
2019-01-28T09:10:48.023Z,11.03
2019-01-28T09:13:16.087Z,12.47
2019-01-28T09:15:44.452Z,11.20
2019-01-28T09:18:12.487Z,11.53
2019-01-28T09:20:40.481Z,17.33
2019-01-28T09:23:08.567Z,16.70
2019-01-28T09:25:36.448Z,16.37
2019-01-28T09:28:04.448Z,10.57
2019-01-28T09:30:32.611Z,17.27
2019-01-28T09:33:00.588Z,14.70
2019-01-28T09:35:28.670Z,11.60
2019-01-28T09:41:04.249Z,8.73
2019-01-28T09:43:32.201Z,6.43
2019-01-28T09:46:00.144Z,7.10
2019-01-28T09:48:34.218Z,7.47
2019-01-28T09:50:57.876Z,14.87
2019-01-28T09:53:29.341Z,18.87
2019-01-28T09:55:55.468Z,19.63
2019-01-28T09:58:23.436Z,19.83
2019-01-28T10:00:51.617Z,12.90
2019-01-28T10:03:19.611Z,8.47
2019-01-28T10:05:47.584Z,7.77
2019-01-28T10:08:15.699Z,9.13
2019-01-28T10:10:43.755Z,10.77
2019-01-28T10:13:11.633Z,16.90
2019-01-28T10:15:39.590Z,16.13
2019-01-28T10:18:07.548Z,20.50
2019-01-28T10:20:36.833Z,14.63
2019-01-28T10:23:04.919Z,16.57
2019-01-28T10:25:32.895Z,13.73
2019-01-28T10:28:00.848Z,8.60
2019-01-28T10:30:47.779Z,7.50
2019-01-28T10:33:15.865Z,13.43
2019-01-28T10:35:44.524Z,24.60
2019-01-28T10:38:12.900Z,12.13
2019-01-28T10:40:41.046Z,17.30
2019-01-28T10:43:09.351Z,23.43
2019-01-28T10:45:37.412Z,26.00
2019-01-28T10:48:26.235Z,26.30
2019-01-28T10:50:54.111Z,27.70
2019-01-28T10:53:22.167Z,27.30
2019-01-28T10:58:32.251Z,30.97
2019-01-28T11:01:00.258Z,37.53
2019-01-28T11:03:28.146Z,27.93
2019-01-28T11:05:56.159Z,24.17
2019-01-28T11:08:24.040Z,24.60
2019-01-28T11:13:39.159Z,28.67
2019-01-28T11:16:07.235Z,28.10
2019-01-28T11:18:35.308Z,29.90
2019-01-28T11:21:03.494Z,29.03
2019-01-28T11:23:32.303Z,27.70
2019-01-28T11:26:01.147Z,28.80
2019-01-28T11:28:29.294Z,28.50
2019-01-28T11:33:46.867Z,25.80
2019-01-28T11:36:14.908Z,26.33
2019-01-28T11:38:42.948Z,23.67
2019-01-28T11:41:10.984Z,23.87
2019-01-28T11:43:39.090Z,24.60
2019-01-28T11:46:07.676Z,24.80
2019-01-28T11:48:35.599Z,25.60
2019-01-28T11:51:03.732Z,24.07
2019-01-28T11:53:31.633Z,24.50
2019-01-28T11:55:59.621Z,26.57
2019-01-28T11:58:27.622Z,23.33
2019-01-28T12:03:48.373Z,23.37
2019-01-28T12:06:16.275Z,23.43
2019-01-28T12:08:44.353Z,27.80
2019-01-28T12:11:12.420Z,23.43
2019-01-28T12:13:40.420Z,22.20
2019-01-28T12:16:08.305Z,23.27
2019-01-28T12:18:36.189Z,36.83
2019-01-28T12:21:24.550Z,26.63
2019-01-28T12:23:52.444Z,25.60
2019-01-28T12:26:20.432Z,21.87
2019-01-28T12:28:48.423Z,23.20
2019-01-28T12:31:16.408Z,22.57
2019-01-28T12:33:45.670Z,23.80
2019-01-28T12:36:13.904Z,31.00
2019-01-28T12:38:42.145Z,26.67
2019-01-28T12:41:17.128Z,23.50
2019-01-28T12:43:39.852Z,18.83
2019-01-28T12:46:07.917Z,18.40
2019-01-28T12:48:35.993Z,18.87
2019-01-28T12:51:04.004Z,25.67
2019-01-28T12:53:31.989Z,30.90
2019-01-28T12:56:00.200Z,23.70
2019-01-28T12:58:28.298Z,25.03
2019-01-28T13:03:48.905Z,16.57
2019-01-28T13:06:16.933Z,19.33
2019-01-28T13:08:44.867Z,18.00
2019-01-28T13:11:12.861Z,17.10
2019-01-28T13:13:41.208Z,14.73
2019-01-28T13:16:10.546Z,15.07
2019-01-28T13:21:20.648Z,15.10
2019-01-28T13:23:48.641Z,13.70
2019-01-28T13:26:17.386Z,14.23
2019-01-28T13:28:46.248Z,13.40
2019-01-28T13:31:14.234Z,12.67
2019-01-28T13:33:42.211Z,14.53
2019-01-28T13:36:10.099Z,15.20
2019-01-28T13:38:38.065Z,13.10
2019-01-28T13:41:06.114Z,14.27
2019-01-28T13:43:34.011Z,13.20
2019-01-28T13:46:01.919Z,27.70
2019-01-28T13:48:30.191Z,17.80
2019-01-28T13:50:58.268Z,16.40
2019-01-28T13:53:26.235Z,14.80
2019-01-28T13:55:54.203Z,16.23
2019-01-28T13:58:22.072Z,6.00
2019-01-28T14:00:50.051Z,5.83
2019-01-28T14:03:18.118Z,5.90
2019-01-28T14:08:28.167Z,6.47
2019-01-28T14:10:56.069Z,7.27
2019-01-28T14:13:24.038Z,5.97
2019-01-28T14:15:52.020Z,5.80
2019-01-28T14:18:19.993Z,5.90
2019-01-28T14:20:53.405Z,5.43
2019-01-28T14:23:17.791Z,5.50
2019-01-28T14:25:45.840Z,5.50
2019-01-28T14:28:13.799Z,5.13
2019-01-28T14:30:45.606Z,5.40
2019-01-28T14:33:13.521Z,7.40
2019-01-28T14:35:41.505Z,5.67
2019-01-28T14:38:30.445Z,6.13
2019-01-28T14:40:58.464Z,6.53
2019-01-28T14:43:26.441Z,5.90
2019-01-28T14:45:54.472Z,6.30
2019-01-28T14:48:22.440Z,8.73
2019-01-28T14:50:50.384Z,7.17
2019-01-28T14:56:00.371Z,5.70
2019-01-28T15:04:12.955Z,5.83
2019-01-28T15:06:40.889Z,6.20
2019-01-28T15:09:10.729Z,6.50
2019-01-28T15:11:38.755Z,5.90
2019-01-28T15:14:21.547Z,6.93
2019-01-28T15:16:37.071Z,15.63
2019-01-28T15:19:05.151Z,17.00
2019-01-28T15:21:33.126Z,16.77
2019-01-28T15:24:01.119Z,17.43
2019-01-28T15:26:29.088Z,18.97
2019-01-28T15:28:57.107Z,18.40
2019-01-28T15:31:25.209Z,17.97
2019-01-28T15:33:53.154Z,19.23
2019-01-28T15:36:21.124Z,18.10
2019-01-28T15:38:49.115Z,18.40
2019-01-28T15:43:59.275Z,18.23
2019-01-28T15:46:27.240Z,18.80
2019-01-28T15:48:55.203Z,18.80
2019-01-28T15:51:23.172Z,18.80
2019-01-28T15:53:51.136Z,18.10
2019-01-28T15:56:19.123Z,18.77
2019-01-28T15:58:47.093Z,18.13
2019-01-28T16:01:15.042Z,18.63
2019-01-28T16:03:43.016Z,21.40
2019-01-28T16:06:11.117Z,20.97
2019-01-28T16:08:39.051Z,22.10
2019-01-28T16:11:07.033Z,21.70
2019-01-28T16:13:34.987Z,22.33
2019-01-28T16:16:02.935Z,20.90
2019-01-28T16:18:34.508Z,21.30
2019-01-28T16:21:00.523Z,20.30
2019-01-28T16:23:28.370Z,19.70
2019-01-28T16:25:56.321Z,20.37
2019-01-28T16:28:24.235Z,20.43
2019-01-28T16:30:52.196Z,21.53
2019-01-28T16:33:20.213Z,20.80
2019-01-28T16:35:48.140Z,22.50
2019-01-28T16:38:16.112Z,22.43
2019-01-28T16:40:44.088Z,20.73
2019-01-28T16:43:12.056Z,20.80
2019-01-28T16:45:40.028Z,23.53
2019-01-28T16:48:08.565Z,20.87
2019-01-28T16:50:57.060Z,23.70
2019-01-28T16:53:25.040Z,22.30
2019-01-28T16:55:53.018Z,22.10
2019-01-28T16:58:20.967Z,21.37
2019-01-28T17:00:48.917Z,20.60
2019-01-28T17:03:16.829Z,20.53
2019-01-28T17:05:44.756Z,24.60
2019-01-28T17:08:12.773Z,28.13
2019-01-28T17:10:40.800Z,24.20
2019-01-28T17:13:09.127Z,21.60
2019-01-28T17:15:37.039Z,21.60
2019-01-28T17:18:05.428Z,20.80
2019-01-28T17:23:41.096Z,19.17
2019-01-28T17:26:09.023Z,19.60
2019-01-28T17:28:37.192Z,20.47
2019-01-28T17:31:05.314Z,20.50
2019-01-28T17:33:33.273Z,21.00
2019-01-28T17:38:43.370Z,21.17
2019-01-28T17:41:11.341Z,20.57
2019-01-28T17:43:39.303Z,23.23
2019-01-28T17:46:07.293Z,24.07
2019-01-28T17:48:35.242Z,23.70
2019-01-28T17:51:03.208Z,22.63
2019-01-28T17:53:31.199Z,24.37
2019-01-28T17:55:59.223Z,24.63
2019-01-28T17:58:27.122Z,25.03
2019-01-28T18:03:45.818Z,23.87
2019-01-28T18:06:13.738Z,26.20
2019-01-28T18:08:41.734Z,26.23
2019-01-28T18:11:09.679Z,25.47
2019-01-28T18:13:37.677Z,25.93
2019-01-28T18:16:05.719Z,25.37
2019-01-28T18:18:33.710Z,22.80
2019-01-28T18:21:01.648Z,25.83
2019-01-28T18:23:48.628Z,25.77
2019-01-28T18:26:16.702Z,26.17
2019-01-28T18:28:44.838Z,26.00
2019-01-28T18:31:12.857Z,26.30
2019-01-28T18:33:40.773Z,25.90
2019-01-28T18:36:08.744Z,26.50
2019-01-28T18:38:36.700Z,26.50
2019-01-28T18:44:07.369Z,24.80
2019-01-28T18:46:35.344Z,26.67
2019-01-28T18:49:03.295Z,27.00
2019-01-28T18:51:45.049Z,25.13
2019-01-28T18:54:12.948Z,23.97
2019-01-28T18:56:40.940Z,26.03
2019-01-28T18:59:08.902Z,27.37
2019-01-28T19:01:36.964Z,25.67
2019-01-28T19:04:04.953Z,26.47
2019-01-28T19:06:51.887Z,26.30
2019-01-28T19:09:38.860Z,26.20
2019-01-28T19:12:25.869Z,27.80
2019-01-28T19:15:12.771Z,26.90
2019-01-28T19:17:59.818Z,28.90
2019-01-28T19:20:46.785Z,26.20
2019-01-28T19:23:14.729Z,26.20
2019-01-28T19:25:42.678Z,27.30
2019-01-28T19:28:10.604Z,27.03
2019-01-28T19:30:38.605Z,26.60
2019-01-28T19:33:06.652Z,27.10
2019-01-28T19:35:34.617Z,28.90
2019-01-28T19:38:02.610Z,27.40
2019-01-28T19:40:30.651Z,27.30
2019-01-28T19:42:58.650Z,27.90
2019-01-28T19:45:26.637Z,30.47
2019-01-28T19:50:36.683Z,30.00
2019-01-28T19:53:04.883Z,30.30
2019-01-28T19:55:32.871Z,28.87
2019-01-28T19:58:00.805Z,29.03
2019-01-28T20:00:47.819Z,29.10
2019-01-28T20:03:16.027Z,26.13
2019-01-28T20:05:43.957Z,26.57
2019-01-28T20:08:11.906Z,27.90
2019-01-28T20:10:39.883Z,27.63
2019-01-28T20:13:07.855Z,25.77
2019-01-28T20:15:35.812Z,26.53
2019-01-28T20:18:03.944Z,26.97
2019-01-28T20:20:31.960Z,29.33
2019-01-28T20:23:18.874Z,27.43
2019-01-28T20:25:46.908Z,25.70
2019-01-28T20:28:14.977Z,26.23
2019-01-28T20:30:42.993Z,30.73
2019-01-28T20:33:10.981Z,31.83
2019-01-28T20:35:38.962Z,31.93
2019-01-28T20:38:06.989Z,28.73
2019-01-28T20:40:34.880Z,26.37
2019-01-28T20:43:02.928Z,27.07
2019-01-28T20:45:30.827Z,24.80
2019-01-28T20:47:58.802Z,24.87
2019-01-28T20:50:26.975Z,25.20
2019-01-28T20:52:55.044Z,24.27
2019-01-28T20:55:23.024Z,24.33
2019-01-28T20:57:51.083Z,25.97
2019-01-28T21:00:20.136Z,24.47
2019-01-28T21:02:48.166Z,26.23
2019-01-28T21:05:16.818Z,24.87
2019-01-28T21:07:44.787Z,24.07
2019-01-28T21:10:13.310Z,24.90
2019-01-28T21:12:41.321Z,23.70
2019-01-28T21:15:10.454Z,22.73
2019-01-28T21:17:38.511Z,23.10
2019-01-28T21:20:07.694Z,23.10
2019-01-28T21:22:35.651Z,24.30
2019-01-28T21:27:45.474Z,23.10
2019-01-28T21:30:15.187Z,23.27
2019-01-28T21:32:43.112Z,24.07
2019-01-28T21:35:11.092Z,24.10
2019-01-28T21:40:27.403Z,22.30
2019-01-28T21:42:55.697Z,24.50
2019-01-28T21:45:24.009Z,25.60
2019-01-28T21:48:11.005Z,26.27
2019-01-28T21:50:38.890Z,25.47
2019-01-28T21:53:06.776Z,28.07
2019-01-28T21:58:16.883Z,28.20
2019-01-28T22:00:45.022Z,29.30
2019-01-28T22:03:12.994Z,29.90
2019-01-28T22:05:40.974Z,30.00
2019-01-28T22:08:08.945Z,26.30
2019-01-28T22:13:23.994Z,25.63
2019-01-28T22:15:51.987Z,26.13
2019-01-28T22:18:20.008Z,24.47
2019-01-28T22:20:47.927Z,26.77
2019-01-28T22:23:15.924Z,29.30
2019-01-28T22:25:43.884Z,28.57
2019-01-28T22:28:11.871Z,26.60
2019-01-28T22:30:39.820Z,27.40
2019-01-28T22:33:09.025Z,29.47
2019-01-28T22:38:19.526Z,30.37
2019-01-28T22:40:47.449Z,28.10
2019-01-28T22:43:15.435Z,27.10
2019-01-28T22:45:43.383Z,26.10
2019-01-28T22:48:11.375Z,25.20
2019-01-28T22:50:39.351Z,27.00
2019-01-28T22:53:07.286Z,27.03
2019-01-28T22:55:36.635Z,28.57
2019-01-28T22:58:05.152Z,28.33
2019-01-28T23:00:53.363Z,28.97
2019-01-28T23:03:22.561Z,27.83
2019-01-28T23:05:50.509Z,26.70
2019-01-28T23:08:18.560Z,28.07
2019-01-28T23:10:46.541Z,27.10
2019-01-28T23:13:14.512Z,28.47
2019-01-28T23:15:42.480Z,26.67
2019-01-28T23:18:10.437Z,25.30
2019-01-28T23:20:38.633Z,24.10
2019-01-28T23:23:06.687Z,24.37
2019-01-28T23:25:34.661Z,24.03
2019-01-28T23:30:42.932Z,26.27
2019-01-28T23:33:10.870Z,25.00
2019-01-28T23:35:38.833Z,26.00
2019-01-28T23:40:48.906Z,26.07
2019-01-28T23:43:16.851Z,24.13
2019-01-28T23:45:44.821Z,26.53
2019-01-28T23:48:12.808Z,26.80
2019-01-28T23:50:40.771Z,24.40
2019-01-28T23:53:08.740Z,24.87
2019-01-28T23:55:36.695Z,27.20
2019-01-28T23:58:10.972Z,24.30
